Time;durP1;ratioP1;P1;durP2;ratioP2;P2;SDS_P1;SDS_P2;PMS_P1;PMS_P2;Temp;Humidity;BMP_temperature;BMP_pressure;BME280_temperature;BME280_humidity;BME280_pressure;Samples;Min_cycle;Max_cycle;Signal;HPM_P1;HPM_P2
2023/06/18 00:01:07;;;;;;;;;18.00;17.00;;;;;27.79;71.57;100718.03;5098592;27;65343;-75
2023/06/18 00:03:32;;;;;;;;;21.00;19.33;;;;;27.80;71.84;100723.34;5098694;27;62636;-75
2023/06/18 00:05:59;;;;;;;;;17.00;17.00;;;;;27.77;72.33;100718.13;5098798;27;61039;-76
2023/06/18 00:08:24;;;;;;;;;18.67;18.67;;;;;27.76;72.18;100723.66;5099075;27;46598;-75
2023/06/18 00:10:50;;;;;;;;;15.00;15.00;;;;;27.73;72.48;100716.56;5098389;27;65572;-75
2023/06/18 00:13:15;;;;;;;;;16.00;16.00;;;;;27.74;72.14;100720.16;5099413;27;45403;-75
2023/06/18 00:15:41;;;;;;;;;15.00;15.00;;;;;27.72;72.46;100711.25;5099072;27;45640;-75
2023/06/18 00:18:07;;;;;;;;;15.67;15.67;;;;;27.72;72.32;100712.13;5099032;27;47188;-76
2023/06/18 00:20:35;;;;;;;;;14.33;14.33;;;;;27.73;72.42;100707.56;5098716;27;45449;-76
2023/06/18 00:23:00;;;;;;;;;15.33;15.00;;;;;27.71;72.69;100709.53;5099194;27;45489;-75
2023/06/18 00:25:26;;;;;;;;;15.33;15.33;;;;;27.70;72.74;100714.06;5098819;27;45184;-75
2023/06/18 00:27:51;;;;;;;;;16.33;15.33;;;;;27.69;73.01;100704.13;5098788;27;47899;-74
2023/06/18 00:30:17;;;;;;;;;14.33;13.33;;;;;27.67;73.45;100717.81;5098067;27;66091;-75
2023/06/18 00:32:44;;;;;;;;;17.67;17.67;;;;;27.64;73.26;100712.56;5090585;27;45521;-75
2023/06/18 00:35:14;;;;;;;;;15.67;15.33;;;;;27.62;74.12;100711.78;5099147;27;45307;-74
2023/06/18 00:37:43;;;;;;;;;16.67;15.00;;;;;27.60;74.14;100707.44;5098549;27;46014;-75
2023/06/18 00:40:10;;;;;;;;;16.00;16.00;;;;;27.58;74.76;100717.50;5098622;27;45480;-75
2023/06/18 00:42:36;;;;;;;;;17.67;17.67;;;;;27.56;74.50;100716.72;5098957;27;45448;-75
2023/06/18 00:45:02;;;;;;;;;18.33;16.67;;;;;27.54;74.25;100726.78;5093508;27;46363;-75
2023/06/18 00:47:28;;;;;;;;;18.00;17.00;;;;;27.53;74.53;100734.03;5098037;27;47410;-75
2023/06/18 00:49:55;;;;;;;;;14.33;14.33;;;;;27.52;75.42;100729.59;5097374;27;71469;-75
2023/06/18 00:52:23;;;;;;;;;16.33;14.00;;;;;27.52;75.87;100734.16;5098261;27;45463;-75
2023/06/18 00:54:49;;;;;;;;;14.33;14.33;;;;;27.49;75.78;100743.38;5080201;27;45470;-75
2023/06/18 00:57:17;;;;;;;;;17.33;16.00;;;;;27.46;75.25;100740.81;5098430;27;46634;-75
2023/06/18 00:59:42;;;;;;;;;16.00;16.00;;;;;27.44;75.37;100742.75;5098582;27;45365;-75
2023/06/18 01:02:08;;;;;;;;;23.33;21.67;;;;;27.39;85.89;100755.72;5098397;27;45724;-74
2023/06/18 01:04:35;;;;;;;;;27.33;25.33;;;;;27.17;100.00;100755.28;5098855;27;45410;-74
2023/06/18 01:07:02;;;;;;;;;24.00;21.00;;;;;26.68;100.00;100763.50;5080356;27;46459;-75
2023/06/18 01:09:28;;;;;;;;;26.00;20.00;;;;;26.25;100.00;100784.81;5079235;27;45321;-75
2023/06/18 01:11:54;;;;;;;;;24.00;24.00;;;;;26.02;100.00;100778.84;5080584;27;45290;-75
2023/06/18 01:14:21;;;;;;;;;23.33;22.00;;;;;25.86;100.00;100776.06;5097425;27;64887;-75
2023/06/18 01:16:51;;;;;;;;;22.67;22.33;;;;;25.74;100.00;100773.13;5080348;27;47672;-74
2023/06/18 01:19:55;;;;;;;;;25.00;23.33;;;;;25.68;100.00;100781.56;5097691;27;45438;-75
2023/06/18 01:22:44;;;;;;;;;27.33;23.00;;;;;25.64;100.00;100777.28;5087410;27;45256;-76
2023/06/18 01:25:10;;;;;;;;;23.00;20.00;;;;;25.59;100.00;100785.63;5096206;27;45129;-74
2023/06/18 01:27:43;;;;;;;;;24.00;21.67;;;;;25.58;100.00;100800.09;5077352;27;47397;-75
2023/06/18 01:30:13;;;;;;;;;23.00;23.00;;;;;25.57;100.00;100787.53;5098416;27;45300;-75
2023/06/18 01:32:39;;;;;;;;;23.33;21.33;;;;;25.57;100.00;100783.00;5098106;27;45433;-75
2023/06/18 01:35:06;;;;;;;;;21.67;20.67;;;;;25.53;100.00;100770.59;5097600;27;45497;-74
2023/06/18 01:38:01;;;;;;;;;24.00;21.33;;;;;25.55;100.00;100763.25;5097859;27;47363;-75
2023/06/18 01:40:49;;;;;;;;;21.00;19.33;;;;;25.53;100.00;100754.38;5077313;27;45820;-75
2023/06/18 01:43:27;;;;;;;;;25.67;25.33;;;;;25.52;100.00;100749.91;5079801;27;45350;-75
2023/06/18 01:45:57;;;;;;;;;28.67;25.33;;;;;25.51;100.00;100758.97;5074622;27;45434;-75
2023/06/18 01:48:22;;;;;;;;;25.67;25.00;;;;;25.47;100.00;100748.41;5063964;27;47560;-75
2023/06/18 01:50:49;;;;;;;;;27.33;27.33;;;;;25.44;100.00;100752.13;5068258;27;45315;-75
2023/06/18 01:53:21;;;;;;;;;26.33;24.67;;;;;25.40;100.00;100745.13;5078986;27;45453;-75
2023/06/18 01:55:47;;;;;;;;;21.33;20.00;;;;;25.34;100.00;100759.84;5080282;27;45365;-75
2023/06/18 01:58:13;;;;;;;;;24.00;23.00;;;;;25.34;100.00;100756.28;5097453;27;47705;-75
2023/06/18 02:00:40;;;;;;;;;27.67;24.67;;;;;25.31;100.00;100748.34;5097895;27;45399;-75
2023/06/18 02:03:05;;;;;;;;;23.00;23.00;;;;;25.28;100.00;100759.28;5097045;27;45395;-75
2023/06/18 02:05:30;;;;;;;;;24.00;22.00;;;;;25.24;100.00;100749.59;5096042;27;55607;-75
2023/06/18 02:07:56;;;;;;;;;23.00;22.00;;;;;25.21;100.00;100747.94;5096552;27;67418;-75
2023/06/18 02:10:21;;;;;;;;;27.00;25.33;;;;;25.17;100.00;100751.72;5097868;27;45382;-75
2023/06/18 02:12:47;;;;;;;;;29.00;26.00;;;;;25.19;100.00;100757.91;5097683;27;45395;-75
2023/06/18 02:15:12;;;;;;;;;25.67;25.67;;;;;25.16;100.00;100749.13;5097780;27;45506;-75
2023/06/18 02:17:38;;;;;;;;;28.67;27.67;;;;;25.13;100.00;100743.84;5094154;27;54217;-75
2023/06/18 02:20:04;;;;;;;;;23.00;21.00;;;;;25.10;100.00;100753.00;5087001;27;45299;-75
2023/06/18 02:22:29;;;;;;;;;15.33;15.33;;;;;25.03;100.00;100759.63;5097523;27;45272;-75
2023/06/18 02:24:54;;;;;;;;;15.67;12.67;;;;;24.98;100.00;100745.47;5096415;27;62255;-75
2023/06/18 02:27:20;;;;;;;;;15.33;15.33;;;;;24.93;100.00;100747.53;5094416;27;49583;-75
2023/06/18 02:29:45;;;;;;;;;13.00;12.33;;;;;24.88;100.00;100739.69;5097263;27;45425;-75
2023/06/18 02:32:11;;;;;;;;;12.33;10.67;;;;;24.88;100.00;100744.22;5088543;27;45446;-75
2023/06/18 02:34:37;;;;;;;;;11.33;11.33;;;;;24.85;100.00;100752.44;5097364;27;45329;-75
2023/06/18 02:37:03;;;;;;;;;14.33;13.67;;;;;24.85;100.00;100760.56;5096842;27;47269;-75
2023/06/18 02:39:28;;;;;;;;;11.67;9.67;;;;;24.83;100.00;100763.34;5097319;27;45460;-75
2023/06/18 02:41:53;;;;;;;;;9.33;9.33;;;;;24.80;100.00;100756.25;5096402;27;56116;-75
2023/06/18 02:44:19;;;;;;;;;8.67;8.00;;;;;24.79;100.00;100757.19;5096671;27;61983;-75
2023/06/18 02:46:45;;;;;;;;;9.67;9.67;;;;;24.77;100.00;100751.00;5097419;27;45612;-75
2023/06/18 02:49:10;;;;;;;;;7.00;7.00;;;;;24.75;100.00;100750.19;5096569;27;68618;-75
2023/06/18 02:51:37;;;;;;;;;6.00;6.00;;;;;24.73;100.00;100751.22;5099122;27;45262;-75
2023/06/18 02:54:02;;;;;;;;;6.00;6.00;;;;;24.73;100.00;100756.63;5094918;27;45419;-75
2023/06/18 02:56:28;;;;;;;;;7.00;6.00;;;;;24.67;100.00;100755.09;5096525;27;46085;-74
2023/06/18 02:58:55;;;;;;;;;7.00;7.00;;;;;24.67;100.00;100759.63;5096566;27;45805;-75
2023/06/18 03:01:24;;;;;;;;;7.33;5.00;;;;;24.66;100.00;100763.25;5097101;27;45224;-75
2023/06/18 03:03:50;;;;;;;;;8.67;7.33;;;;;24.63;100.00;100766.13;5097142;27;45453;-76
2023/06/18 03:06:15;;;;;;;;;7.00;6.00;;;;;24.58;100.00;100768.16;5075630;27;46445;-76
2023/06/18 03:08:41;;;;;;;;;8.67;7.00;;;;;24.54;100.00;100768.31;5096113;27;69304;-75
2023/06/18 03:11:07;;;;;;;;;7.33;6.00;;;;;24.51;100.00;100768.47;5096223;27;45279;-75
2023/06/18 03:13:32;;;;;;;;;8.33;8.33;;;;;24.49;100.00;100759.56;5096493;27;45278;-75
2023/06/18 03:15:57;;;;;;;;;8.67;8.33;;;;;24.52;100.00;100758.53;5095410;27;69201;-75
2023/06/18 03:18:23;;;;;;;;;10.00;9.00;;;;;24.51;100.00;100751.41;5100216;27;45282;-75
2023/06/18 03:20:48;;;;;;;;;10.00;8.67;;;;;24.49;100.00;100753.28;5100510;27;45294;-75
2023/06/18 03:23:14;;;;;;;;;8.33;7.00;;;;;24.48;100.00;100763.19;5099924;27;45577;-75
2023/06/18 03:25:39;;;;;;;;;8.00;8.00;;;;;24.51;100.00;100762.19;5099651;27;46635;-75
2023/06/18 03:28:05;;;;;;;;;10.00;10.00;;;;;24.52;100.00;100775.63;5100015;27;45251;-75
2023/06/18 03:30:30;;;;;;;;;9.33;7.33;;;;;24.49;100.00;100778.44;5100545;27;45512;-75
2023/06/18 03:32:58;;;;;;;;;9.00;8.00;;;;;24.49;100.00;100777.56;5100346;27;45343;-75
2023/06/18 03:35:24;;;;;;;;;6.33;6.33;;;;;24.46;100.00;100783.13;5099563;27;47538;-75
2023/06/18 03:37:49;;;;;;;;;6.00;6.00;;;;;24.44;100.00;100782.31;5100582;27;45451;-76
2023/06/18 03:40:15;;;;;;;;;5.67;5.67;;;;;24.43;100.00;100783.25;5089919;27;53388;-75
2023/06/18 03:42:41;;;;;;;;;3.00;3.00;;;;;24.41;100.00;100777.94;5099436;27;45386;-75
2023/06/18 03:45:06;;;;;;;;;5.00;5.00;;;;;24.40;100.00;100764.53;5099532;27;51705;-75
2023/06/18 03:47:32;;;;;;;;;5.33;5.00;;;;;24.40;100.00;100760.00;5099793;27;45316;-75
2023/06/18 03:49:57;;;;;;;;;6.00;4.00;;;;;24.38;100.00;100771.81;5099608;27;45311;-75
2023/06/18 03:52:22;;;;;;;;;4.00;4.00;;;;;24.35;100.00;100762.06;5098308;27;62097;-75
2023/06/18 03:54:48;;;;;;;;;6.67;6.00;;;;;24.33;100.00;100769.28;5098524;27;69484;-75
2023/06/18 03:57:13;;;;;;;;;5.00;5.00;;;;;24.30;100.00;100764.06;5099802;27;45511;-75
2023/06/18 03:59:38;;;;;;;;;5.67;5.67;;;;;24.30;100.00;100758.66;5098436;27;61424;-74
2023/06/18 04:02:04;;;;;;;;;5.00;5.00;;;;;24.31;100.00;100758.56;5099512;27;47014;-75
2023/06/18 04:04:30;;;;;;;;;7.33;6.00;;;;;24.29;100.00;100762.31;5099476;27;46580;-75
2023/06/18 04:06:56;;;;;;;;;5.67;4.67;;;;;24.27;100.00;100753.41;5099713;27;45347;-74
2023/06/18 04:09:21;;;;;;;;;7.33;4.00;;;;;24.23;100.00;100747.25;5097650;27;45142;-76
2023/06/18 04:11:47;;;;;;;;;5.67;5.00;;;;;24.25;100.00;100742.69;5099163;27;45424;-75
2023/06/18 04:14:12;;;;;;;;;5.67;5.00;;;;;24.23;100.00;100736.47;5099390;27;47377;-75
2023/06/18 04:16:38;;;;;;;;;5.00;5.00;;;;;24.25;100.00;100736.41;5098406;27;67481;-75
2023/06/18 04:19:03;;;;;;;;;3.00;3.00;;;;;24.24;100.00;100738.25;5099047;27;45317;-75
2023/06/18 04:21:29;;;;;;;;;5.67;4.33;;;;;24.22;100.00;100736.53;5099550;27;45260;-75
2023/06/18 04:23:54;;;;;;;;;5.00;5.00;;;;;24.23;100.00;100740.97;5099313;27;46352;-75
2023/06/18 04:26:20;;;;;;;;;5.00;5.00;;;;;24.20;100.00;100731.22;5097457;27;64345;-75
2023/06/18 04:28:46;;;;;;;;;5.00;5.00;;;;;24.23;100.00;100738.28;5098262;27;45793;-75
2023/06/18 04:31:11;;;;;;;;;3.67;3.67;;;;;24.20;100.00;100741.16;5098178;27;61864;-75
2023/06/18 04:33:36;;;;;;;;;5.33;5.33;;;;;24.19;100.00;100756.47;5097849;27;69120;-75
2023/06/18 04:36:02;;;;;;;;;6.00;4.00;;;;;24.20;100.00;100754.63;5098060;27;65562;-75
2023/06/18 04:38:27;;;;;;;;;6.00;4.33;;;;;24.20;100.00;100754.63;5098855;27;45232;-75
2023/06/18 04:40:53;;;;;;;;;6.00;4.00;;;;;24.20;100.00;100769.00;5098279;27;61704;-75
2023/06/18 04:43:18;;;;;;;;;4.00;4.00;;;;;24.19;100.00;100766.38;5097987;27;71722;-75
2023/06/18 04:45:47;;;;;;;;;4.00;4.00;;;;;24.18;100.00;100764.59;5097873;27;45299;-75
2023/06/18 04:48:14;;;;;;;;;6.33;3.67;;;;;24.19;100.00;100775.34;5099480;27;45213;-75
2023/06/18 04:50:39;;;;;;;;;5.67;4.33;;;;;24.16;100.00;100771.91;5093167;27;45496;-75
2023/06/18 04:53:05;;;;;;;;;5.00;5.00;;;;;24.21;100.00;100799.56;5089113;27;47306;-75
2023/06/18 04:55:30;;;;;;;;;4.33;4.33;;;;;24.23;100.00;100800.34;5098356;27;45310;-75
2023/06/18 04:57:56;;;;;;;;;4.33;4.33;;;;;24.25;100.00;100795.78;5098302;27;64392;-75
2023/06/18 05:00:21;;;;;;;;;5.33;4.00;;;;;24.24;100.00;100789.50;5080151;27;45634;-75
2023/06/18 05:02:47;;;;;;;;;4.00;4.00;;;;;24.27;100.00;100791.16;5098053;27;46963;-75
2023/06/18 05:05:12;;;;;;;;;6.00;6.00;;;;;24.26;100.00;100782.19;5093763;27;45278;-75
2023/06/18 05:07:37;;;;;;;;;6.67;6.00;;;;;24.23;100.00;100784.16;5093689;27;64771;-75
2023/06/18 05:10:04;;;;;;;;;6.67;6.00;;;;;24.27;100.00;100783.06;5077020;28;45529;-75
2023/06/18 05:12:29;;;;;;;;;4.00;3.33;;;;;24.27;100.00;100792.03;5097518;27;47475;-75
2023/06/18 05:14:55;;;;;;;;;5.33;5.00;;;;;24.26;100.00;100792.13;5097971;27;45407;-74
2023/06/18 05:17:20;;;;;;;;;4.67;4.67;;;;;24.26;100.00;100793.00;5098916;27;45219;-75
2023/06/18 05:19:46;;;;;;;;;5.00;5.00;;;;;24.28;100.00;100787.53;5098099;27;45428;-75
2023/06/18 05:22:11;;;;;;;;;6.00;6.00;;;;;24.28;100.00;100780.28;5097839;27;47086;-75
2023/06/18 05:24:36;;;;;;;;;5.67;5.67;;;;;24.29;100.00;100778.50;5097843;27;52207;-75
2023/06/18 05:27:02;;;;;;;;;6.00;6.00;;;;;24.31;100.00;100784.69;5098052;27;45274;-75
2023/06/18 05:29:27;;;;;;;;;7.00;4.00;;;;;24.32;100.00;100783.75;5088097;27;45502;-75
2023/06/18 05:31:52;;;;;;;;;5.67;5.00;;;;;24.34;100.00;100783.66;5097196;27;63491;-75
2023/06/18 05:34:17;;;;;;;;;8.00;5.00;;;;;24.38;100.00;100790.72;5097030;27;68847;-75
2023/06/18 05:36:43;;;;;;;;;3.67;3.67;;;;;24.40;100.00;100788.84;5097350;27;64278;-75
2023/06/18 05:39:09;;;;;;;;;5.00;5.00;;;;;24.42;100.00;100786.91;5096593;27;54709;-75
2023/06/18 05:41:34;;;;;;;;;8.00;6.67;;;;;24.45;100.00;100789.47;5098148;27;47357;-75
2023/06/18 05:43:59;;;;;;;;;6.67;6.67;;;;;24.45;100.00;100784.97;5093700;27;68687;-75
2023/06/18 05:46:24;;;;;;;;;6.00;6.00;;;;;24.50;100.00;100782.94;5098349;27;45466;-75
2023/06/18 05:48:50;;;;;;;;;6.00;5.00;;;;;24.52;100.00;100791.81;5097629;27;45849;-75
2023/06/18 05:51:15;;;;;;;;;5.00;5.00;;;;;24.55;100.00;100778.19;5096767;27;70544;-75
2023/06/18 05:53:41;;;;;;;;;9.33;6.33;;;;;24.60;100.00;100783.34;5097680;27;45517;-75
2023/06/18 05:56:06;;;;;;;;;6.67;5.00;;;;;24.65;100.00;100778.59;5097432;27;45390;-75
2023/06/18 05:58:31;;;;;;;;;8.67;5.67;;;;;24.67;100.00;100778.53;5096791;27;59826;-75
2023/06/18 06:00:57;;;;;;;;;4.67;4.33;;;;;24.71;100.00;100780.97;5096848;27;58695;-75
2023/06/18 06:03:22;;;;;;;;;10.00;6.00;;;;;24.78;100.00;100789.69;5097072;27;63378;-75
2023/06/18 06:05:47;;;;;;;;;5.00;5.00;;;;;24.82;100.00;100788.56;5097192;27;56187;-74
2023/06/18 06:08:13;;;;;;;;;5.67;5.67;;;;;24.85;100.00;100791.13;5078686;27;62876;-75
2023/06/18 06:10:38;;;;;;;;;7.67;6.00;;;;;24.88;100.00;100788.28;5097520;27;46307;-75
2023/06/18 06:13:03;;;;;;;;;7.67;7.67;;;;;24.90;100.00;100789.09;5096555;27;67437;-75
2023/06/18 06:15:29;;;;;;;;;3.00;3.00;;;;;24.95;100.00;100788.84;5077856;27;45276;-76
2023/06/18 06:20:25;;;;;;;;;7.67;5.00;;;;;25.07;100.00;100788.28;5056776;28;45983;-76
2023/06/18 06:22:50;;;;;;;;;7.33;6.33;;;;;25.08;100.00;100780.09;5056817;28;45410;-75
2023/06/18 06:25:15;;;;;;;;;4.33;4.33;;;;;25.13;100.00;100784.38;5066288;28;45312;-75
2023/06/18 06:27:43;;;;;;;;;7.00;4.00;;;;;25.19;100.00;100792.19;5056147;28;62564;-76
2023/06/18 06:30:08;;;;;;;;;5.00;5.00;;;;;25.23;100.00;100793.78;5067338;28;46480;-76
2023/06/18 06:32:35;;;;;;;;;6.00;6.00;;;;;25.25;100.00;100786.50;5068238;28;45406;-76
2023/06/18 06:35:01;;;;;;;;;4.67;4.67;;;;;25.27;100.00;100787.28;5056685;28;45443;-75
2023/06/18 06:37:27;;;;;;;;;6.33;5.33;;;;;25.34;100.00;100792.28;5054399;28;45601;-73
2023/06/18 06:39:52;;;;;;;;;5.67;4.33;;;;;25.37;100.00;100791.25;5060457;28;45595;-73
2023/06/18 06:42:17;;;;;;;;;6.67;6.67;;;;;25.42;100.00;100799.16;5044520;28;45480;-73
2023/06/18 06:44:43;;;;;;;;;5.67;5.00;;;;;25.44;100.00;100802.63;5062421;28;45325;-74
2023/06/18 06:47:08;;;;;;;;;6.33;6.33;;;;;25.46;100.00;100796.22;5061661;28;45545;-75
2023/06/18 06:49:33;;;;;;;;;6.00;6.00;;;;;25.48;100.00;100799.69;5055917;28;66233;-74
2023/06/18 06:51:59;;;;;;;;;6.00;5.00;;;;;25.51;100.00;100799.53;5057912;28;45540;-74
2023/06/18 06:54:24;;;;;;;;;5.00;5.00;;;;;25.53;100.00;100797.63;5061203;28;63886;-73
2023/06/18 06:56:49;;;;;;;;;5.33;5.33;;;;;25.56;100.00;100796.59;5059055;28;58085;-75
2023/06/18 06:59:15;;;;;;;;;6.00;5.00;;;;;25.58;100.00;100792.88;5059601;28;47353;-74
2023/06/18 07:01:42;;;;;;;;;5.00;5.00;;;;;25.64;100.00;100794.38;5061421;28;45416;-75
2023/06/18 07:04:08;;;;;;;;;5.33;5.33;;;;;25.68;100.00;100798.66;5058501;28;45590;-74
2023/06/18 07:06:33;;;;;;;;;5.67;5.67;;;;;25.73;100.00;100793.03;5058429;28;45216;-75
2023/06/18 07:09:00;;;;;;;;;7.67;6.00;;;;;25.79;100.00;100798.13;5060302;28;47173;-75
2023/06/18 07:11:25;;;;;;;;;3.00;3.00;;;;;25.86;100.00;100783.31;5058619;28;45854;-75
2023/06/18 07:13:51;;;;;;;;;6.00;6.00;;;;;25.93;100.00;100789.28;5062403;28;45392;-75
2023/06/18 07:16:16;;;;;;;;;9.00;6.00;;;;;25.98;100.00;100790.78;5062924;28;62457;-73
2023/06/18 07:18:41;;;;;;;;;7.00;7.00;;;;;26.04;100.00;100785.03;5057597;28;70586;-75
2023/06/18 07:21:07;;;;;;;;;6.00;6.00;;;;;26.08;100.00;100793.88;5057751;28;45338;-75
2023/06/18 07:23:33;;;;;;;;;9.67;9.67;;;;;26.11;100.00;100800.00;5061404;28;45472;-74
2023/06/18 07:25:58;;;;;;;;;9.33;9.33;;;;;26.16;100.00;100802.47;5069631;28;45466;-75
2023/06/18 07:28:23;;;;;;;;;9.67;9.67;;;;;26.21;100.00;100794.09;5061037;28;47247;-73
2023/06/18 07:30:49;;;;;;;;;8.33;8.33;;;;;26.25;100.00;100806.47;5055386;28;45451;-72
2023/06/18 07:33:14;;;;;;;;;10.00;10.00;;;;;26.26;100.00;100805.50;5058851;28;45839;-73
2023/06/18 07:35:39;;;;;;;;;10.33;10.33;;;;;26.27;100.00;100800.03;5059368;28;48043;-72
2023/06/18 07:38:05;;;;;;;;;12.00;10.33;;;;;26.28;100.00;100796.38;5057361;28;45457;-77
2023/06/18 07:40:33;;;;;;;;;9.67;8.00;;;;;26.29;100.00;100789.97;5055487;28;45526;-76
2023/06/18 07:42:59;;;;;;;;;9.00;9.00;;;;;26.34;100.00;100789.72;5059173;28;45345;-76
2023/06/18 07:45:24;;;;;;;;;11.33;9.00;;;;;26.36;100.00;100793.22;5062481;28;45865;-76
2023/06/18 07:47:49;;;;;;;;;15.67;10.00;;;;;26.40;100.00;100794.81;5062654;28;68039;-75
2023/06/18 07:50:15;;;;;;;;;9.00;8.00;;;;;26.45;100.00;100800.88;5063503;28;49035;-75
2023/06/18 07:52:40;;;;;;;;;8.33;8.33;;;;;26.45;100.00;100795.47;5061590;28;45453;-73
2023/06/18 07:55:06;;;;;;;;;9.00;7.00;;;;;26.49;100.00;100794.34;5067038;28;63799;-72
2023/06/18 07:57:31;;;;;;;;;8.67;8.67;;;;;26.47;100.00;100790.81;5057314;28;46428;-73
2023/06/18 07:59:58;;;;;;;;;7.67;7.67;;;;;26.45;100.00;100790.03;5057688;28;68692;-72
2023/06/18 08:02:23;;;;;;;;;9.33;8.00;;;;;26.41;100.00;100782.13;5064005;28;65336;-72
2023/06/18 08:04:48;;;;;;;;;8.33;8.33;;;;;26.39;100.00;100782.22;5062518;28;45508;-72
2023/06/18 08:07:14;;;;;;;;;6.67;6.67;;;;;26.37;100.00;100771.50;5056598;28;56927;-72
2023/06/18 08:09:39;;;;;;;;;10.67;9.00;;;;;26.36;100.00;100775.13;5056229;28;45713;-72
2023/06/18 08:12:05;;;;;;;;;6.33;6.33;;;;;26.35;100.00;100770.69;5054703;28;45450;-76
2023/06/18 08:14:31;;;;;;;;;9.00;9.00;;;;;26.37;100.00;100773.34;5063179;28;45469;-73
2023/06/18 08:16:56;;;;;;;;;10.00;10.00;;;;;26.37;100.00;100767.91;5058272;28;63960;-75
2023/06/18 08:19:21;;;;;;;;;9.67;9.67;;;;;26.42;100.00;100774.00;5056216;28;45390;-74
2023/06/18 08:21:47;;;;;;;;;10.00;9.00;;;;;26.51;100.00;100770.75;5064774;28;50839;-74
2023/06/18 08:24:13;;;;;;;;;10.67;9.00;;;;;26.56;100.00;100765.06;5060954;28;45579;-75
2023/06/18 08:26:38;;;;;;;;;10.00;9.00;;;;;26.64;100.00;100763.69;5061938;28;46634;-74
2023/06/18 08:29:03;;;;;;;;;8.33;7.00;;;;;26.74;100.00;100763.13;5061175;28;45514;-74
2023/06/18 08:31:29;;;;;;;;;8.67;8.67;;;;;26.86;100.00;100766.03;5068878;28;65998;-74
2023/06/18 08:33:55;;;;;;;;;9.00;9.00;;;;;26.99;100.00;100749.91;5063027;28;45522;-75
2023/06/18 08:36:21;;;;;;;;;11.33;9.67;;;;;27.11;100.00;100745.63;5070762;28;47245;-75
2023/06/18 08:38:46;;;;;;;;;10.33;10.33;;;;;27.27;100.00;100746.50;5067550;28;45515;-74
2023/06/18 08:41:12;;;;;;;;;11.00;11.00;;;;;27.35;100.00;100738.75;5069095;28;46222;-75
2023/06/18 08:43:38;;;;;;;;;11.33;10.00;;;;;27.41;100.00;100729.38;5065611;28;45356;-74
2023/06/18 08:46:09;;;;;;;;;15.67;11.00;;;;;27.45;100.00;100736.38;5060880;28;45774;-74
2023/06/18 08:48:41;;;;;;;;;12.67;12.33;;;;;27.51;100.00;100745.97;5065508;28;45403;-75
2023/06/18 08:51:08;;;;;;;;;11.33;10.00;;;;;27.55;100.00;100742.97;5039313;28;45455;-75
2023/06/18 08:53:46;;;;;;;;;11.67;11.67;;;;;27.59;100.00;100736.41;5069920;28;45458;-75
2023/06/18 08:56:14;;;;;;;;;11.00;10.00;;;;;27.66;100.00;100740.47;5053974;28;46532;-75
2023/06/18 08:58:42;;;;;;;;;12.00;12.00;;;;;27.71;100.00;100734.81;5058702;28;45471;-74
2023/06/18 09:01:09;;;;;;;;;12.33;11.67;;;;;27.74;100.00;100731.88;5043678;28;45576;-74
2023/06/18 09:03:37;;;;;;;;;12.33;11.33;;;;;27.79;100.00;100735.19;5054079;28;45468;-74
2023/06/18 09:06:03;;;;;;;;;11.33;11.33;;;;;27.83;100.00;100731.31;5042477;28;47383;-74
2023/06/18 09:08:28;;;;;;;;;13.33;10.00;;;;;27.88;100.00;100734.63;5056402;28;69321;-74
2023/06/18 09:10:54;;;;;;;;;11.00;11.00;;;;;27.93;100.00;100728.91;5038886;28;65319;-75
2023/06/18 09:13:19;;;;;;;;;9.33;9.33;;;;;27.94;100.00;100727.94;5057508;28;45400;-74
2023/06/18 09:15:45;;;;;;;;;9.33;9.33;;;;;27.97;100.00;100730.47;5057251;28;73582;-75
2023/06/18 09:18:10;;;;;;;;;12.67;10.00;;;;;28.00;100.00;100724.81;5056588;28;66720;-74
2023/06/18 09:20:36;;;;;;;;;8.00;8.00;;;;;28.02;100.00;100727.44;5039130;28;64052;-75
2023/06/18 09:23:08;;;;;;;;;9.00;7.67;;;;;28.05;100.00;100721.81;5039844;28;45569;-74
2023/06/18 09:25:33;;;;;;;;;10.00;10.00;;;;;28.09;100.00;100717.94;5054655;28;47410;-74
2023/06/18 09:28:00;;;;;;;;;10.33;9.00;;;;;28.11;100.00;100716.88;5065275;28;45276;-74
2023/06/18 09:30:26;;;;;;;;;9.33;9.00;;;;;28.14;100.00;100707.66;5039791;28;47090;-74
2023/06/18 09:32:53;;;;;;;;;8.00;8.00;;;;;28.18;100.00;100710.09;5057342;28;45522;-75
2023/06/18 09:35:19;;;;;;;;;8.67;8.67;;;;;28.28;100.00;100710.34;5056930;28;46522;-74
2023/06/18 09:37:45;;;;;;;;;10.00;10.00;;;;;28.33;100.00;100707.38;5065606;28;45196;-75
2023/06/18 09:40:17;;;;;;;;;11.67;9.67;;;;;28.39;100.00;100702.44;5060152;28;45336;-74
2023/06/18 09:42:48;;;;;;;;;10.33;9.00;;;;;28.48;100.00;100702.78;5058303;28;45633;-75
2023/06/18 09:45:14;;;;;;;;;10.33;10.33;;;;;28.54;100.00;100703.25;5066467;28;47062;-75
2023/06/18 09:47:45;;;;;;;;;12.00;10.33;;;;;28.61;100.00;100707.31;5065387;28;45280;-74
2023/06/18 09:50:11;;;;;;;;;8.00;8.00;;;;;28.66;100.00;100707.03;5063817;28;45421;-75
2023/06/18 09:52:48;;;;;;;;;10.00;10.00;;;;;28.76;100.00;100705.41;5058854;28;45320;-74
2023/06/18 09:55:28;;;;;;;;;5.67;5.67;;;;;28.85;100.00;100698.50;5059637;28;46504;-75
2023/06/18 09:57:53;;;;;;;;;11.00;9.00;;;;;28.97;100.00;100703.13;5054477;28;45289;-74
2023/06/18 10:00:19;;;;;;;;;10.00;10.00;;;;;29.06;100.00;100699.78;5059595;28;45209;-75
2023/06/18 10:02:44;;;;;;;;;11.00;11.00;;;;;29.11;100.00;100703.06;5058610;28;45521;-75
2023/06/18 10:05:10;;;;;;;;;9.33;9.33;;;;;29.16;100.00;100700.03;5055759;28;68011;-75
2023/06/18 10:07:39;;;;;;;;;11.67;10.33;;;;;29.23;100.00;100702.22;5056073;28;64242;-75
2023/06/18 10:10:07;;;;;;;;;12.00;10.33;;;;;29.29;100.00;100691.88;5064772;28;45378;-75
2023/06/18 10:12:33;;;;;;;;;10.00;10.00;;;;;29.33;100.00;100699.72;5057012;28;45153;-75
2023/06/18 10:14:58;;;;;;;;;14.00;12.00;;;;;29.35;100.00;100707.78;5045240;28;73542;-75
2023/06/18 10:17:26;;;;;;;;;11.33;10.67;;;;;29.33;100.00;100715.19;5065384;28;65760;-74
2023/06/18 10:20:03;;;;;;;;;11.33;11.33;;;;;29.31;100.00;100704.41;5047982;28;45423;-75
2023/06/18 10:22:34;;;;;;;;;17.00;14.33;;;;;29.32;100.00;100702.56;5058275;28;45324;-75
2023/06/18 10:25:05;;;;;;;;;14.00;13.00;;;;;29.33;100.00;100701.59;5037432;28;47558;-75
2023/06/18 10:27:30;;;;;;;;;12.33;12.33;;;;;29.33;100.00;100693.41;5065230;28;45601;-75
2023/06/18 10:29:59;;;;;;;;;14.33;14.00;;;;;29.34;100.00;100690.59;5056496;28;45439;-74
2023/06/18 10:32:26;;;;;;;;;17.33;14.33;;;;;29.36;100.00;100694.09;5056347;28;45497;-75
2023/06/18 10:34:53;;;;;;;;;13.33;13.33;;;;;29.38;100.00;100683.97;5070157;28;47288;-75
2023/06/18 10:37:20;;;;;;;;;14.67;13.33;;;;;29.39;100.00;100687.53;5049878;28;45347;-75
2023/06/18 10:39:46;;;;;;;;;25.33;22.33;;;;;29.37;100.00;100679.50;5065952;28;45236;-75
2023/06/18 10:42:13;;;;;;;;;16.00;16.00;;;;;29.39;100.00;100677.53;5040933;28;53012;-75
2023/06/18 10:44:47;;;;;;;;;21.00;21.00;;;;;29.44;100.00;100688.09;5055296;28;47569;-75
2023/06/18 10:47:25;;;;;;;;;33.00;30.00;;;;;29.40;100.00;100678.41;5056570;28;45293;-74
2023/06/18 10:50:05;;;;;;;;;18.00;16.67;;;;;29.31;100.00;100674.50;5055461;28;45449;-76
2023/06/18 10:52:35;;;;;;;;;15.00;15.00;;;;;29.20;100.00;100658.06;5057381;28;45606;-74
2023/06/18 10:55:20;;;;;;;;;16.00;14.00;;;;;29.22;100.00;100659.69;5055882;28;46771;-75
2023/06/18 10:57:47;;;;;;;;;19.00;15.67;;;;;29.23;100.00;100653.25;5058981;28;45380;-75
2023/06/18 11:00:15;;;;;;;;;22.00;19.00;;;;;29.23;100.00;100649.66;5038017;28;45508;-75
2023/06/18 11:02:40;;;;;;;;;18.67;17.33;;;;;29.17;100.00;100644.66;5065212;28;45424;-75
2023/06/18 11:05:06;;;;;;;;;15.67;15.67;;;;;29.16;100.00;100657.38;5055639;28;47466;-74
2023/06/18 11:07:31;;;;;;;;;15.00;15.00;;;;;29.13;100.00;100656.72;5050060;28;45541;-75
2023/06/18 11:09:59;;;;;;;;;17.33;16.00;;;;;29.12;100.00;100652.25;5058739;28;60483;-74
2023/06/18 11:12:25;;;;;;;;;12.33;12.33;;;;;29.10;100.00;100641.50;5056439;28;45252;-75